createdAt,value
2019-02-17T00:00:56.774Z,1019.89
2019-02-17T00:01:56.787Z,1019.91
2019-02-17T00:03:56.817Z,1019.9
2019-02-17T00:04:56.832Z,1019.91
2019-02-17T00:05:56.844Z,1019.93
2019-02-17T00:06:56.858Z,1019.93
2019-02-17T00:07:56.873Z,1019.92
2019-02-17T00:08:56.887Z,1019.96
2019-02-17T00:09:56.904Z,1019.96
2019-02-17T00:10:56.915Z,1019.95
2019-02-17T00:11:56.929Z,1019.96
2019-02-17T00:12:56.943Z,1019.92
2019-02-17T00:13:56.959Z,1019.9
2019-02-17T00:14:56.972Z,1019.88
2019-02-17T00:15:56.985Z,1019.88
2019-02-17T00:16:56.999Z,1019.91
2019-02-17T00:17:57.014Z,1019.85
2019-02-17T00:19:57.043Z,1019.86
2019-02-17T00:20:57.055Z,1019.86
2019-02-17T00:21:57.069Z,1019.84
2019-02-17T00:22:57.083Z,1019.86
2019-02-17T00:23:57.097Z,1019.86
2019-02-17T00:24:57.111Z,1019.85
2019-02-17T00:25:57.125Z,1019.85
2019-02-17T00:26:57.144Z,1019.85
2019-02-17T00:27:57.152Z,1019.84
2019-02-17T00:28:59.320Z,1019.83
2019-02-17T00:29:57.181Z,1019.81
2019-02-17T00:30:57.195Z,1019.81
2019-02-17T00:31:57.209Z,1019.78
2019-02-17T00:32:57.222Z,1019.79
2019-02-17T00:33:57.241Z,1019.8
2019-02-17T00:35:57.269Z,1019.75
2019-02-17T00:36:57.278Z,1019.79
2019-02-17T00:37:57.293Z,1019.77
2019-02-17T00:38:57.305Z,1019.78
2019-02-17T00:39:57.320Z,1019.78
2019-02-17T00:40:57.334Z,1019.76
2019-02-17T00:41:57.355Z,1019.78
2019-02-17T00:42:57.362Z,1019.78
2019-02-17T00:43:57.376Z,1019.81
2019-02-17T00:44:57.389Z,1019.79
2019-02-17T00:45:57.402Z,1019.83
2019-02-17T00:46:57.417Z,1019.8
2019-02-17T00:47:57.431Z,1019.81
2019-02-17T00:48:57.445Z,1019.83
2019-02-17T00:49:57.460Z,1019.84
2019-02-17T00:51:57.486Z,1019.8
2019-02-17T00:52:57.500Z,1019.77
2019-02-17T00:53:57.514Z,1019.78
2019-02-17T00:54:57.527Z,1019.75
2019-02-17T00:55:57.541Z,1019.78
2019-02-17T00:56:57.554Z,1019.79
2019-02-17T00:57:57.568Z,1019.79
2019-02-17T00:58:57.583Z,1019.84
2019-02-17T00:59:57.596Z,1019.82
2019-02-17T01:00:57.613Z,1019.83
2019-02-17T01:01:57.628Z,1019.84
2019-02-17T01:02:57.641Z,1019.83
2019-02-17T01:03:57.655Z,1019.8
2019-02-17T01:04:57.669Z,1019.79
2019-02-17T01:06:57.698Z,1019.84
2019-02-17T01:07:57.711Z,1019.78
2019-02-17T01:08:57.725Z,1019.83
2019-02-17T01:09:57.738Z,1019.81
2019-02-17T01:10:57.752Z,1019.81
2019-02-17T01:11:57.765Z,1019.83
2019-02-17T01:12:57.779Z,1019.82
2019-02-17T01:13:57.793Z,1019.82
2019-02-17T01:14:57.805Z,1019.85
2019-02-17T01:15:57.820Z,1019.8
2019-02-17T01:16:57.834Z,1019.79
2019-02-17T01:17:57.848Z,1019.8
2019-02-17T01:18:57.860Z,1019.79
2019-02-17T01:19:57.875Z,1019.79
2019-02-17T01:20:57.889Z,1019.79
2019-02-17T01:21:57.943Z,1019.79
2019-02-17T01:22:57.915Z,1019.84
2019-02-17T01:23:57.930Z,1019.83
2019-02-17T01:24:57.942Z,1019.84
2019-02-17T01:25:57.955Z,1019.82
2019-02-17T01:26:57.970Z,1019.84
2019-02-17T01:27:57.983Z,1019.85
2019-02-17T01:28:57.996Z,1019.83
2019-02-17T01:29:58.010Z,1019.88
2019-02-17T01:30:58.024Z,1019.88
2019-02-17T01:31:58.037Z,1019.87
2019-02-17T01:32:58.054Z,1019.88
2019-02-17T01:33:58.064Z,1019.87
2019-02-17T01:34:58.077Z,1019.88
2019-02-17T01:35:58.092Z,1019.85
2019-02-17T01:36:58.105Z,1019.86
2019-02-17T01:38:58.131Z,1019.82
2019-02-17T01:39:58.145Z,1019.85
2019-02-17T01:40:58.160Z,1019.82
2019-02-17T01:41:58.175Z,1019.86
2019-02-17T01:42:58.185Z,1019.87
2019-02-17T01:43:58.198Z,1019.86
2019-02-17T01:44:58.211Z,1019.88
2019-02-17T01:45:58.225Z,1019.88
2019-02-17T01:46:58.239Z,1019.88
2019-02-17T01:47:58.251Z,1019.88
2019-02-17T01:48:58.264Z,1019.86
2019-02-17T01:49:58.279Z,1019.87
2019-02-17T01:50:58.292Z,1019.88
2019-02-17T01:51:58.305Z,1019.84
2019-02-17T01:52:58.322Z,1019.83
2019-02-17T01:54:58.346Z,1019.83
2019-02-17T01:55:58.367Z,1019.83
2019-02-17T01:56:58.373Z,1019.82
2019-02-17T01:57:58.386Z,1019.8
2019-02-17T01:58:58.399Z,1019.77
2019-02-17T01:59:58.412Z,1019.75
2019-02-17T02:00:58.426Z,1019.8
2019-02-17T02:01:58.441Z,1019.78
2019-02-17T02:02:58.453Z,1019.81
2019-02-17T02:03:58.465Z,1019.8
2019-02-17T02:04:58.480Z,1019.78
2019-02-17T02:05:58.498Z,1019.75
2019-02-17T02:06:58.506Z,1019.8
2019-02-17T02:07:58.520Z,1019.75
2019-02-17T02:08:58.533Z,1019.78
2019-02-17T02:10:58.560Z,1019.77
2019-02-17T02:11:58.573Z,1019.79
2019-02-17T02:12:58.587Z,1019.72
2019-02-17T02:13:58.600Z,1019.75
2019-02-17T02:14:58.613Z,1019.72
2019-02-17T02:15:58.627Z,1019.76
2019-02-17T02:16:58.641Z,1019.74
2019-02-17T02:17:58.657Z,1019.71
2019-02-17T02:18:58.667Z,1019.68
2019-02-17T02:19:58.681Z,1019.69
2019-02-17T02:20:58.693Z,1019.65
2019-02-17T02:21:58.707Z,1019.7
2019-02-17T02:22:58.721Z,1019.71
2019-02-17T02:23:58.739Z,1019.73
2019-02-17T02:24:58.747Z,1019.7
2019-02-17T02:26:58.775Z,1019.71
2019-02-17T02:27:58.788Z,1019.72
2019-02-17T02:28:58.802Z,1019.67
2019-02-17T02:29:58.815Z,1019.71
2019-02-17T02:30:58.833Z,1019.75
2019-02-17T02:31:58.842Z,1019.79
2019-02-17T02:32:58.855Z,1019.73
2019-02-17T02:33:58.868Z,1019.74
2019-02-17T02:34:58.884Z,1019.76
2019-02-17T02:35:58.895Z,1019.77
2019-02-17T02:36:58.909Z,1019.81
2019-02-17T02:37:58.922Z,1019.79
2019-02-17T02:38:58.936Z,1019.84
2019-02-17T02:39:58.951Z,1019.83
2019-02-17T02:41:58.978Z,1019.77
2019-02-17T02:42:58.994Z,1019.77
2019-02-17T02:43:59.004Z,1019.74
2019-02-17T02:44:59.018Z,1019.77
2019-02-17T02:45:59.031Z,1019.78
2019-02-17T02:46:59.044Z,1019.76
2019-02-17T02:47:59.060Z,1019.8
2019-02-17T02:48:59.072Z,1019.76
2019-02-17T02:49:59.084Z,1019.79
2019-02-17T02:50:59.099Z,1019.78
2019-02-17T02:51:59.112Z,1019.83
2019-02-17T02:52:59.124Z,1019.77
2019-02-17T02:53:59.138Z,1019.79
2019-02-17T02:54:59.151Z,1019.81
2019-02-17T02:55:59.169Z,1019.82
2019-02-17T02:56:59.179Z,1019.87
2019-02-17T02:57:59.193Z,1019.88
2019-02-17T02:58:59.207Z,1019.86
2019-02-17T02:59:59.230Z,1019.89
2019-02-17T03:00:59.231Z,1019.9
2019-02-17T03:01:59.251Z,1019.92
2019-02-17T03:02:59.258Z,1019.93
2019-02-17T03:03:59.272Z,1019.92
2019-02-17T03:04:59.285Z,1019.93
2019-02-17T03:05:59.298Z,1019.95
2019-02-17T03:06:59.312Z,1019.97
2019-02-17T03:07:59.325Z,1019.95
2019-02-17T03:08:59.337Z,1019.94
2019-02-17T03:09:59.352Z,1019.95
2019-02-17T03:10:59.370Z,1019.95
2019-02-17T03:11:59.379Z,1019.95
2019-02-17T03:13:59.405Z,1020
2019-02-17T03:14:59.418Z,1019.95
2019-02-17T03:15:59.431Z,1019.94
2019-02-17T03:17:00.746Z,1019.98
2019-02-17T03:17:59.459Z,1019.93
2019-02-17T03:18:59.471Z,1019.89
2019-02-17T03:19:59.491Z,1019.87
2019-02-17T03:20:59.497Z,1019.85
2019-02-17T03:21:59.512Z,1019.91
2019-02-17T03:22:59.524Z,1019.97
2019-02-17T03:23:59.537Z,1019.95
2019-02-17T03:24:59.550Z,1020
2019-02-17T03:25:59.563Z,1020.02
2019-02-17T03:26:59.579Z,1020.04
2019-02-17T03:27:59.590Z,1020.01
2019-02-17T03:30:04.598Z,1020.01
2019-02-17T03:30:59.641Z,1020.02
2019-02-17T03:31:59.643Z,1020.02
2019-02-17T03:32:59.658Z,1019.97
2019-02-17T03:33:59.670Z,1020.02
2019-02-17T03:34:59.684Z,1020.03
2019-02-17T03:35:59.696Z,1020.02
2019-02-17T03:36:59.709Z,1020.01
2019-02-17T03:37:59.721Z,1020.02
2019-02-17T03:38:59.736Z,1020.02
2019-02-17T03:39:59.749Z,1020
2019-02-17T03:40:59.767Z,1019.97
2019-02-17T03:41:59.774Z,1019.96
2019-02-17T03:42:59.789Z,1020.03
2019-02-17T03:43:59.813Z,1020.05
2019-02-17T03:45:59.827Z,1020.11
2019-02-17T03:46:59.841Z,1020.09
2019-02-17T03:47:59.855Z,1020.13
2019-02-17T03:48:59.865Z,1020.11
2019-02-17T03:49:59.882Z,1020.1
2019-02-17T03:50:59.892Z,1020.07
2019-02-17T03:51:59.905Z,1020.11
2019-02-17T03:52:59.919Z,1020.07
2019-02-17T03:53:59.931Z,1020.06
2019-02-17T03:54:59.945Z,1020.07
2019-02-17T03:55:59.956Z,1020.02
2019-02-17T03:56:59.970Z,1020.08
2019-02-17T03:57:59.986Z,1020.08
2019-02-17T03:58:59.996Z,1020.05
2019-02-17T04:00:00.013Z,1020.03
2019-02-17T04:02:00.035Z,1020.06
2019-02-17T04:03:00.050Z,1020.05
2019-02-17T04:04:00.060Z,1020.08
2019-02-17T04:05:00.074Z,1020.05
2019-02-17T04:06:00.087Z,1020.1
2019-02-17T04:07:00.099Z,1020.06
2019-02-17T04:08:00.112Z,1020.1
2019-02-17T04:09:00.126Z,1020.12
2019-02-17T04:10:00.302Z,1020.11
2019-02-17T04:11:00.151Z,1020.1
2019-02-17T04:12:00.164Z,1020.12
2019-02-17T04:13:00.180Z,1020.11
2019-02-17T04:14:00.190Z,1020.08
2019-02-17T04:15:00.311Z,1020.11
2019-02-17T04:17:00.232Z,1020.12
2019-02-17T04:18:00.246Z,1020.07
2019-02-17T04:19:00.255Z,1020.1
2019-02-17T04:20:00.359Z,1020.09
2019-02-17T04:21:00.281Z,1020.08
2019-02-17T04:22:00.293Z,1020.06
2019-02-17T04:23:00.307Z,1020.13
2019-02-17T04:24:00.319Z,1020.11
2019-02-17T04:25:00.331Z,1020.06
2019-02-17T04:26:00.360Z,1020.06
2019-02-17T04:27:00.357Z,1020.05
2019-02-17T04:28:00.373Z,1020.06
2019-02-17T04:29:00.389Z,1020.02
2019-02-17T04:30:00.513Z,1020.04
2019-02-17T04:31:00.408Z,1020.02
2019-02-17T04:32:00.428Z,1020.04
2019-02-17T04:33:00.433Z,1020.03
2019-02-17T04:34:00.447Z,1020.03
2019-02-17T04:35:00.567Z,1020.01
2019-02-17T04:36:00.472Z,1020.01
2019-02-17T04:37:00.485Z,1020
2019-02-17T04:38:00.499Z,1020.02
2019-02-17T04:39:00.515Z,1020.07
2019-02-17T04:40:00.524Z,1020.06
2019-02-17T04:41:00.537Z,1020.06
2019-02-17T04:42:00.549Z,1020.1
2019-02-17T04:43:00.562Z,1020.09
2019-02-17T04:44:00.573Z,1020.08
2019-02-17T04:45:00.586Z,1020.06
2019-02-17T04:46:00.600Z,1020.06
2019-02-17T04:47:00.611Z,1020.06
2019-02-17T04:49:00.639Z,1020.05
2019-02-17T04:50:00.650Z,1020.03
2019-02-17T04:51:00.663Z,1020.04
2019-02-17T04:52:00.675Z,1020
2019-02-17T04:53:00.688Z,1020.02
2019-02-17T04:54:00.701Z,1020
2019-02-17T04:55:00.714Z,1020.02
2019-02-17T04:56:00.725Z,1019.98
2019-02-17T04:57:00.751Z,1020
2019-02-17T04:58:00.751Z,1019.96
2019-02-17T04:59:00.763Z,1020.01
2019-02-17T05:00:00.776Z,1019.99
2019-02-17T05:01:00.789Z,1019.98
2019-02-17T05:02:00.801Z,1019.94
2019-02-17T05:03:00.814Z,1019.96
2019-02-17T05:05:00.841Z,1019.9
2019-02-17T05:06:00.854Z,1019.9
2019-02-17T05:07:00.866Z,1019.9
2019-02-17T05:08:00.878Z,1019.89
2019-02-17T05:09:00.889Z,1019.91
2019-02-17T05:10:00.902Z,1019.93
2019-02-17T05:11:00.914Z,1019.88
2019-02-17T05:12:00.927Z,1019.88
2019-02-17T05:13:00.939Z,1019.91
2019-02-17T05:14:00.952Z,1019.91
2019-02-17T05:15:00.968Z,1019.9
2019-02-17T05:16:00.978Z,1019.9
2019-02-17T05:17:00.989Z,1019.94
2019-02-17T05:18:01.003Z,1019.94
2019-02-17T05:19:01.015Z,1019.92
2019-02-17T05:21:01.039Z,1019.96
2019-02-17T05:22:01.058Z,1019.96
2019-02-17T05:23:01.066Z,1019.97
2019-02-17T05:24:01.076Z,1019.98
2019-02-17T05:25:01.098Z,1020.03
2019-02-17T05:26:01.103Z,1020.03
2019-02-17T05:27:01.114Z,1020.07
2019-02-17T05:28:01.129Z,1020.04
2019-02-17T05:29:01.145Z,1020.05
2019-02-17T05:30:01.152Z,1020
2019-02-17T05:31:01.163Z,1020.05
2019-02-17T05:32:01.176Z,1020.01
2019-02-17T05:33:01.197Z,1020.02
2019-02-17T05:34:01.202Z,1020.01
2019-02-17T05:35:01.216Z,1020.04
2019-02-17T05:37:01.239Z,1020.03
2019-02-17T05:38:01.252Z,1020.04
2019-02-17T05:39:01.264Z,1020.03
2019-02-17T05:40:01.276Z,1020.05
2019-02-17T05:41:01.288Z,1020.04
2019-02-17T05:42:01.306Z,1020.01
2019-02-17T05:43:01.312Z,1020.04
2019-02-17T05:44:01.327Z,1020.05
2019-02-17T05:45:01.339Z,1020.02
2019-02-17T05:46:01.350Z,1020.06
2019-02-17T05:47:01.363Z,1020.04
2019-02-17T05:48:01.378Z,1020.06
2019-02-17T05:49:01.387Z,1020.03
2019-02-17T05:50:01.402Z,1020.11
2019-02-17T05:52:01.425Z,1020.13
2019-02-17T05:53:01.437Z,1020.11
2019-02-17T05:54:01.451Z,1020.14
2019-02-17T05:55:01.467Z,1020.12
2019-02-17T05:56:01.484Z,1020.15
2019-02-17T05:57:01.489Z,1020.16
2019-02-17T05:58:01.499Z,1020.15
2019-02-17T05:59:01.514Z,1020.19
2019-02-17T06:00:01.534Z,1020.2
2019-02-17T06:01:04.028Z,1020.18
2019-02-17T06:02:01.549Z,1020.19
2019-02-17T06:03:01.561Z,1020.23
2019-02-17T06:04:01.573Z,1020.17
2019-02-17T06:05:01.587Z,1020.19
2019-02-17T06:06:01.600Z,1020.18
2019-02-17T06:07:01.612Z,1020.17
2019-02-17T06:08:01.624Z,1020.15
2019-02-17T06:09:01.636Z,1020.14
2019-02-17T06:10:01.650Z,1020.23
2019-02-17T06:11:01.660Z,1020.23
2019-02-17T06:12:01.672Z,1020.19
2019-02-17T06:13:01.685Z,1020.25
2019-02-17T06:14:01.812Z,1020.24
2019-02-17T06:15:01.710Z,1020.2
2019-02-17T06:16:01.721Z,1020.2
2019-02-17T06:17:01.738Z,1020.2
2019-02-17T06:18:01.754Z,1020.23
2019-02-17T06:19:01.758Z,1020.24
2019-02-17T06:20:01.776Z,1020.21
2019-02-17T06:21:01.783Z,1020.23
2019-02-17T06:22:01.794Z,1020.25
2019-02-17T06:24:01.820Z,1020.29
2019-02-17T06:25:01.834Z,1020.3
2019-02-17T06:26:01.864Z,1020.29
2019-02-17T06:27:01.856Z,1020.32
2019-02-17T06:28:01.869Z,1020.31
2019-02-17T06:29:01.882Z,1020.31
2019-02-17T06:30:01.894Z,1020.34
2019-02-17T06:31:01.908Z,1020.37
2019-02-17T06:32:01.919Z,1020.39
2019-02-17T06:33:01.930Z,1020.38
2019-02-17T06:34:01.948Z,1020.45
2019-02-17T06:35:01.958Z,1020.41
2019-02-17T06:36:01.968Z,1020.39
2019-02-17T06:37:01.980Z,1020.41
2019-02-17T06:38:01.994Z,1020.43
2019-02-17T06:40:02.018Z,1020.48
2019-02-17T06:41:02.030Z,1020.49
2019-02-17T06:42:02.043Z,1020.49
2019-02-17T06:43:02.055Z,1020.52
2019-02-17T06:44:02.067Z,1020.56
2019-02-17T06:45:02.082Z,1020.57
2019-02-17T06:46:02.095Z,1020.6
2019-02-17T06:47:02.123Z,1020.58
2019-02-17T06:48:02.117Z,1020.6
2019-02-17T06:49:02.130Z,1020.56
2019-02-17T06:50:02.143Z,1020.57
2019-02-17T06:51:02.155Z,1020.52
2019-02-17T06:52:02.167Z,1020.52
2019-02-17T06:53:02.180Z,1020.5
2019-02-17T06:54:02.193Z,1020.51
2019-02-17T06:56:02.218Z,1020.55
2019-02-17T06:57:02.231Z,1020.55
2019-02-17T06:58:02.243Z,1020.54
2019-02-17T06:59:02.256Z,1020.55
2019-02-17T07:00:02.269Z,1020.53
2019-02-17T07:01:02.281Z,1020.49
2019-02-17T07:02:02.302Z,1020.49
2019-02-17T07:03:02.307Z,1020.45
2019-02-17T07:04:02.322Z,1020.42
2019-02-17T07:05:02.332Z,1020.46
2019-02-17T07:06:02.345Z,1020.48
2019-02-17T07:07:02.358Z,1020.49
2019-02-17T07:08:02.379Z,1020.52
2019-02-17T07:09:04.728Z,1020.51
2019-02-17T07:10:02.397Z,1020.53
2019-02-17T07:12:02.484Z,1020.58
2019-02-17T07:13:02.437Z,1020.55
2019-02-17T07:14:02.449Z,1020.54
2019-02-17T07:15:02.463Z,1020.59
2019-02-17T07:16:02.476Z,1020.62
2019-02-17T07:17:02.490Z,1020.67
2019-02-17T07:18:02.602Z,1020.6
2019-02-17T07:19:02.516Z,1020.63
2019-02-17T07:20:02.530Z,1020.61
2019-02-17T07:21:02.555Z,1020.62
2019-02-17T07:22:02.557Z,1020.62
2019-02-17T07:23:02.571Z,1020.66
2019-02-17T07:24:02.586Z,1020.61
2019-02-17T07:25:02.601Z,1020.62
2019-02-17T07:27:02.633Z,1020.63
2019-02-17T07:28:02.646Z,1020.63
2019-02-17T07:29:02.661Z,1020.66
2019-02-17T07:30:02.676Z,1020.67
2019-02-17T07:31:02.690Z,1020.69
2019-02-17T07:32:02.705Z,1020.66
2019-02-17T07:33:02.720Z,1020.68
2019-02-17T07:34:02.737Z,1020.66
2019-02-17T07:35:02.752Z,1020.7
2019-02-17T07:36:02.776Z,1020.72
2019-02-17T07:37:02.787Z,1020.69
2019-02-17T07:38:02.798Z,1020.71
2019-02-17T07:39:02.812Z,1020.73
2019-02-17T07:40:02.831Z,1020.78
2019-02-17T07:41:02.845Z,1020.75
2019-02-17T07:42:02.863Z,1020.76
2019-02-17T07:43:02.876Z,1020.79
2019-02-17T07:44:02.896Z,1020.73
2019-02-17T07:45:02.908Z,1020.72
2019-02-17T07:46:02.924Z,1020.79
2019-02-17T07:47:02.942Z,1020.77
2019-02-17T07:48:02.959Z,1020.78
2019-02-17T07:49:02.972Z,1020.79
2019-02-17T07:50:02.991Z,1020.8
2019-02-17T07:51:03.009Z,1020.78
2019-02-17T07:52:03.024Z,1020.77
2019-02-17T07:53:03.037Z,1020.75
2019-02-17T07:54:03.051Z,1020.72
2019-02-17T07:55:03.069Z,1020.8
2019-02-17T07:56:03.085Z,1020.77
2019-02-17T07:57:03.110Z,1020.76
2019-02-17T07:59:03.134Z,1020.78
2019-02-17T08:00:03.251Z,1020.78
2019-02-17T08:01:03.166Z,1020.81
2019-02-17T08:02:03.185Z,1020.83
2019-02-17T08:03:03.201Z,1020.79
2019-02-17T08:04:03.217Z,1020.82
2019-02-17T08:05:03.234Z,1020.8
2019-02-17T08:06:03.251Z,1020.82
2019-02-17T08:07:03.367Z,1020.8
2019-02-17T08:08:03.282Z,1020.81
2019-02-17T08:09:03.298Z,1020.86
2019-02-17T08:10:03.316Z,1020.85
2019-02-17T08:11:04.146Z,1020.9
2019-02-17T08:12:03.351Z,1020.9
2019-02-17T08:13:03.365Z,1020.84
2019-02-17T08:15:03.400Z,1020.85
2019-02-17T08:16:03.416Z,1020.84
2019-02-17T08:17:03.432Z,1020.82
2019-02-17T08:18:03.450Z,1020.8
2019-02-17T08:19:03.465Z,1020.82
2019-02-17T08:20:03.482Z,1020.83
2019-02-17T08:21:03.550Z,1020.8
2019-02-17T08:22:03.519Z,1020.83
2019-02-17T08:23:03.533Z,1020.85
2019-02-17T08:24:03.555Z,1020.88
2019-02-17T08:25:03.567Z,1020.87
2019-02-17T08:26:03.584Z,1020.85
2019-02-17T08:27:04.650Z,1020.86
2019-02-17T08:28:03.619Z,1020.89
2019-02-17T08:29:03.634Z,1020.92
2019-02-17T08:31:03.668Z,1020.91
2019-02-17T08:32:03.685Z,1020.89
2019-02-17T08:33:03.702Z,1020.91
2019-02-17T08:34:03.718Z,1020.91
2019-02-17T08:35:03.736Z,1020.92
2019-02-17T08:36:03.755Z,1020.95
2019-02-17T08:37:03.775Z,1020.95
2019-02-17T08:38:03.802Z,1020.95
2019-02-17T08:39:03.804Z,1020.95
2019-02-17T08:40:03.821Z,1020.94
2019-02-17T08:41:03.840Z,1020.93
2019-02-17T08:42:03.855Z,1020.93
2019-02-17T08:43:03.873Z,1020.94
2019-02-17T08:44:03.890Z,1020.92
2019-02-17T08:45:03.907Z,1020.93
2019-02-17T08:47:03.941Z,1020.95
2019-02-17T08:48:04.062Z,1020.98
2019-02-17T08:49:03.976Z,1020.98
2019-02-17T08:50:03.993Z,1020.97
2019-02-17T08:51:04.011Z,1020.96
2019-02-17T08:52:04.028Z,1020.96
2019-02-17T08:53:04.049Z,1020.98
2019-02-17T08:54:04.064Z,1020.98
2019-02-17T08:55:04.081Z,1020.99
2019-02-17T08:56:04.098Z,1020.94
2019-02-17T08:57:04.118Z,1020.9
2019-02-17T08:58:04.136Z,1020.9
2019-02-17T08:59:04.154Z,1020.92
2019-02-17T09:00:04.170Z,1020.88
2019-02-17T09:02:06.072Z,1020.92
2019-02-17T09:03:04.223Z,1020.9
2019-02-17T09:04:04.241Z,1020.89
2019-02-17T09:05:04.260Z,1020.89
2019-02-17T09:06:04.277Z,1020.89
2019-02-17T09:07:06.305Z,1020.84
2019-02-17T09:08:04.315Z,1020.88
2019-02-17T09:09:04.332Z,1020.87
2019-02-17T09:10:04.349Z,1020.86
2019-02-17T09:11:04.367Z,1020.86
2019-02-17T09:12:04.385Z,1020.88
2019-02-17T09:13:04.404Z,1020.82
2019-02-17T09:14:04.422Z,1020.81
2019-02-17T09:15:04.440Z,1020.78
2019-02-17T09:16:04.459Z,1020.84
2019-02-17T09:17:04.478Z,1020.81
2019-02-17T09:18:04.495Z,1020.74
2019-02-17T09:19:04.514Z,1020.75
2019-02-17T09:20:04.532Z,1020.76
2019-02-17T09:21:04.550Z,1020.74
2019-02-17T09:22:04.569Z,1020.72
2019-02-17T09:23:04.588Z,1020.76
2019-02-17T09:24:04.610Z,1020.76
2019-02-17T09:25:04.624Z,1020.8
2019-02-17T09:26:04.644Z,1020.79
2019-02-17T09:27:04.662Z,1020.77
2019-02-17T09:28:04.681Z,1020.79
2019-02-17T09:29:04.699Z,1020.81
2019-02-17T09:30:04.718Z,1020.78
2019-02-17T09:31:04.736Z,1020.77
2019-02-17T09:32:04.755Z,1020.73
2019-02-17T09:34:04.793Z,1020.65
2019-02-17T09:35:04.812Z,1020.63
2019-02-17T09:36:04.829Z,1020.62
2019-02-17T09:37:04.848Z,1020.64
2019-02-17T09:38:04.869Z,1020.6
2019-02-17T09:39:04.886Z,1020.63
2019-02-17T09:40:04.904Z,1020.59
2019-02-17T09:41:04.923Z,1020.62
2019-02-17T09:42:04.967Z,1020.64
2019-02-17T09:43:04.961Z,1020.59
2019-02-17T09:44:04.980Z,1020.58
2019-02-17T09:45:04.999Z,1020.57
2019-02-17T09:46:05.019Z,1020.54
2019-02-17T09:47:05.040Z,1020.53
2019-02-17T09:48:05.061Z,1020.53
2019-02-17T09:50:05.098Z,1020.58
2019-02-17T09:51:05.113Z,1020.59
2019-02-17T09:52:05.132Z,1020.56
2019-02-17T09:53:05.151Z,1020.57
2019-02-17T09:54:05.170Z,1020.56
2019-02-17T09:55:05.189Z,1020.54
2019-02-17T09:56:05.208Z,1020.55
2019-02-17T09:57:05.228Z,1020.53
2019-02-17T09:58:05.247Z,1020.53
2019-02-17T09:59:05.266Z,1020.54
2019-02-17T10:00:05.286Z,1020.5
2019-02-17T10:01:05.356Z,1020.54
2019-02-17T10:02:05.324Z,1020.47
2019-02-17T10:03:05.344Z,1020.47
2019-02-17T10:04:05.363Z,1020.51
2019-02-17T10:06:05.407Z,1020.48
2019-02-17T10:07:05.421Z,1020.47
2019-02-17T10:08:05.442Z,1020.47
2019-02-17T10:09:05.460Z,1020.47
2019-02-17T10:10:05.480Z,1020.47
2019-02-17T10:11:05.499Z,1020.46
2019-02-17T10:12:05.519Z,1020.51
2019-02-17T10:13:05.538Z,1020.5
2019-02-17T10:14:05.558Z,1020.5
2019-02-17T10:15:05.578Z,1020.49
2019-02-17T10:16:05.596Z,1020.54
2019-02-17T10:17:05.616Z,1020.55
2019-02-17T10:18:05.637Z,1020.57
2019-02-17T10:19:05.656Z,1020.53
2019-02-17T10:20:05.677Z,1020.53
2019-02-17T10:22:05.715Z,1020.47
2019-02-17T10:23:05.740Z,1020.49
2019-02-17T10:24:05.755Z,1020.45
2019-02-17T10:25:05.774Z,1020.39
2019-02-17T10:26:05.837Z,1020.4
2019-02-17T10:27:05.914Z,1020.37
2019-02-17T10:28:05.837Z,1020.38
2019-02-17T10:29:05.853Z,1020.35
2019-02-17T10:30:05.874Z,1020.36
2019-02-17T10:31:05.892Z,1020.38
2019-02-17T10:32:05.913Z,1020.34
2019-02-17T10:33:05.934Z,1020.38
2019-02-17T10:34:05.953Z,1020.33
2019-02-17T10:35:05.972Z,1020.3
2019-02-17T10:37:06.013Z,1020.26
2019-02-17T10:38:06.032Z,1020.31
2019-02-17T10:39:06.053Z,1020.29
2019-02-17T10:40:06.072Z,1020.27
2019-02-17T10:41:06.091Z,1020.28
2019-02-17T10:42:06.110Z,1020.29
2019-02-17T10:43:06.131Z,1020.32
2019-02-17T10:44:06.150Z,1020.31
2019-02-17T10:45:06.169Z,1020.29
2019-02-17T10:46:06.251Z,1020.29
2019-02-17T10:47:06.210Z,1020.26
2019-02-17T10:48:06.229Z,1020.23
2019-02-17T10:49:06.248Z,1020.26
2019-02-17T10:50:06.267Z,1020.21
2019-02-17T10:51:06.338Z,1020.19
2019-02-17T10:52:06.310Z,1020.19
2019-02-17T10:53:06.328Z,1020.19
2019-02-17T10:54:06.348Z,1020.21
2019-02-17T10:55:06.366Z,1020.19
2019-02-17T10:56:06.385Z,1020.19
2019-02-17T10:57:06.405Z,1020.17
2019-02-17T10:58:06.424Z,1020.13
2019-02-17T10:59:06.445Z,1020.11
2019-02-17T11:00:06.464Z,1020.1
2019-02-17T11:01:06.486Z,1020.05
2019-02-17T11:02:06.503Z,1020.06
2019-02-17T11:03:06.525Z,1020.04
2019-02-17T11:04:06.541Z,1020.05
2019-02-17T11:05:06.561Z,1020.01
2019-02-17T11:06:06.581Z,1020.01
2019-02-17T11:07:06.600Z,1019.96
2019-02-17T11:09:06.639Z,1019.95
2019-02-17T11:10:06.659Z,1019.95
2019-02-17T11:11:06.679Z,1019.96
2019-02-17T11:12:06.697Z,1019.95
2019-02-17T11:13:06.717Z,1019.91
2019-02-17T11:14:06.737Z,1019.91
2019-02-17T11:15:06.755Z,1019.9
2019-02-17T11:16:06.775Z,1019.89
2019-02-17T11:17:06.795Z,1019.83
2019-02-17T11:18:06.814Z,1019.84
2019-02-17T11:19:06.834Z,1019.81
2019-02-17T11:20:06.853Z,1019.82
2019-02-17T11:21:06.873Z,1019.81
2019-02-17T11:22:06.892Z,1019.8
2019-02-17T11:23:06.911Z,1019.71
2019-02-17T11:25:06.951Z,1019.72
2019-02-17T11:26:06.971Z,1019.73
2019-02-17T11:27:06.990Z,1019.72
2019-02-17T11:28:07.009Z,1019.73
2019-02-17T11:29:07.029Z,1019.75
2019-02-17T11:30:07.048Z,1019.78
2019-02-17T11:31:07.068Z,1019.72
2019-02-17T11:32:07.088Z,1019.74
2019-02-17T11:33:07.106Z,1019.77
2019-02-17T11:34:07.126Z,1019.72
2019-02-17T11:35:07.146Z,1019.7
2019-02-17T11:36:07.165Z,1019.69
2019-02-17T11:37:07.184Z,1019.69
2019-02-17T11:38:07.203Z,1019.67
2019-02-17T11:39:07.224Z,1019.66
2019-02-17T11:41:07.263Z,1019.66
2019-02-17T11:42:07.282Z,1019.72
2019-02-17T11:43:07.303Z,1019.66
2019-02-17T11:44:07.320Z,1019.65
2019-02-17T11:45:07.340Z,1019.64
2019-02-17T11:46:07.361Z,1019.66
2019-02-17T11:47:07.557Z,1019.65
2019-02-17T11:48:07.398Z,1019.65
2019-02-17T11:49:07.418Z,1019.63
2019-02-17T11:50:07.438Z,1019.63
2019-02-17T11:51:07.457Z,1019.62
2019-02-17T11:52:07.476Z,1019.6
2019-02-17T11:53:07.496Z,1019.61
2019-02-17T11:54:07.516Z,1019.62
2019-02-17T11:55:07.535Z,1019.6
2019-02-17T11:57:07.575Z,1019.61
2019-02-17T11:58:07.594Z,1019.56
2019-02-17T11:59:07.613Z,1019.58
2019-02-17T12:00:07.633Z,1019.59
2019-02-17T12:01:07.653Z,1019.55
2019-02-17T12:02:07.672Z,1019.51
2019-02-17T12:03:08.428Z,1019.51
2019-02-17T12:04:07.712Z,1019.53
2019-02-17T12:05:07.733Z,1019.45
2019-02-17T12:06:07.750Z,1019.46
2019-02-17T12:07:07.770Z,1019.43
2019-02-17T12:08:07.790Z,1019.47
2019-02-17T12:09:07.810Z,1019.45
2019-02-17T12:10:07.832Z,1019.46
2019-02-17T12:12:07.870Z,1019.46
2019-02-17T12:13:07.889Z,1019.46
2019-02-17T12:14:07.908Z,1019.5
2019-02-17T12:15:07.931Z,1019.45
2019-02-17T12:16:07.948Z,1019.49
2019-02-17T12:17:07.967Z,1019.48
2019-02-17T12:18:07.987Z,1019.46
2019-02-17T12:19:08.009Z,1019.43
2019-02-17T12:20:08.026Z,1019.48
2019-02-17T12:21:08.047Z,1019.46
2019-02-17T12:22:08.068Z,1019.45
2019-02-17T12:23:08.087Z,1019.43
2019-02-17T12:24:08.105Z,1019.42
2019-02-17T12:25:08.128Z,1019.42
2019-02-17T12:26:08.148Z,1019.42
2019-02-17T12:27:08.176Z,1019.37
2019-02-17T12:28:08.218Z,1019.37
2019-02-17T12:29:08.205Z,1019.34
2019-02-17T12:30:08.294Z,1019.34
2019-02-17T12:31:08.244Z,1019.31
2019-02-17T12:32:08.264Z,1019.32
2019-02-17T12:33:17.648Z,1019.27
2019-02-17T12:34:08.304Z,1019.24
2019-02-17T12:35:08.323Z,1019.23
2019-02-17T12:36:08.343Z,1019.22
2019-02-17T12:37:08.463Z,1019.25
2019-02-17T12:38:08.384Z,1019.21
2019-02-17T12:39:08.404Z,1019.18
2019-02-17T12:40:08.422Z,1019.18
2019-02-17T12:41:08.442Z,1019.17
2019-02-17T12:42:08.462Z,1019.16
2019-02-17T12:44:08.502Z,1019.15
2019-02-17T12:45:08.531Z,1019.1
2019-02-17T12:46:08.541Z,1019.12
2019-02-17T12:47:08.561Z,1019.1
2019-02-17T12:48:08.582Z,1019.11
2019-02-17T12:49:08.602Z,1019.1
2019-02-17T12:50:08.621Z,1019.12